PAPN

Details ICAO PAPN (PIP)
Name PILOT POINT
Region USA (Alaska)
Timezone America/Anchorage (UTC-8.0)
Plans Departing 1
Arriving 1
Stats Elevation 57 ft / 17 m (AMSL)
Location 57.580381° -157.571957°
Runways 1
Magnetic Variation 12.881° E
Sunrise 2018-05-26 13:49:49 UTC / 2018-05-26 05:49:49 Local
Sunset 2018-05-27 07:07:49 UTC / 2018-05-26 23:07:49 Local
Advertisement - Login to hide

Runways

ID Width Length Bearing (true) Bearing (mag) Surface Threshold Offset Overrun Length
07 75 ft / 23 m 3,270 ft / 997 m 89.99° 77.11° Gravel 0 ft / 0 m 0 ft / 0 m
25 75 ft / 23 m 3,270 ft / 997 m 270.01° 257.13° Gravel 0 ft / 0 m 0 ft / 0 m

Map

Weather


0- 5 10 15 20 25 30 35+ Temperature / ° C

Clouds and Precipitation
Forecast for 2018-05-26 12:00 UTC. Updated an hour ago

Ground ~20,000 ft ~40,000 ft Winds

METAR

PAPN 261156Z AUTO 02007KT 10SM BKN095 05/04 A2963 RMK AO2 SLP035 70029 T00500039 10083 20050 55000

TAF

Not found

Frequencies

Recorded 118.37 MHz AWOS 3
Unicom 122.90 MHz CTAF
Warning: Do not use this data for real-world aviation or navigation. No guarantee of current accuracy is given.